Time;durP1;ratioP1;P1;durP2;ratioP2;P2;SDS_P1;SDS_P2;PMS_P1;PMS_P2;Temp;Humidity;BMP_temperature;BMP_pressure;BME280_temperature;BME280_humidity;BME280_pressure;Samples;Min_cycle;Max_cycle;Signal;HPM_P1;HPM_P2
2021/09/09 00:01:47;;;;;;;10.33;9.43;;;14.80;99.90;;;;;;5066560;28;20254;-77
2021/09/09 00:04:12;;;;;;;9.70;8.67;;;14.80;99.90;;;;;;5068618;28;20570;-77
2021/09/09 00:06:38;;;;;;;9.70;8.80;;;15.10;99.90;;;;;;5067790;28;20184;-77
2021/09/09 00:09:04;;;;;;;10.03;8.93;;;14.90;99.90;;;;;;5066639;28;20182;-77
2021/09/09 00:11:30;;;;;;;10.30;9.30;;;14.70;99.90;;;;;;5067072;28;20517;-76
2021/09/09 00:13:56;;;;;;;10.83;9.77;;;14.80;99.90;;;;;;5068943;28;21068;-77
2021/09/09 00:16:22;;;;;;;10.33;9.27;;;15.10;99.90;;;;;;5069371;28;20448;-76
2021/09/09 00:18:47;;;;;;;10.30;9.30;;;14.70;99.90;;;;;;5068184;28;20190;-77
2021/09/09 00:21:16;;;;;;;10.73;9.73;;;14.80;99.90;;;;;;5068492;28;20236;-78
2021/09/09 00:24:09;;;;;;;10.40;9.47;;;14.70;99.90;;;;;;5054329;28;20566;-76
2021/09/09 00:26:34;;;;;;;10.10;9.10;;;14.80;99.90;;;;;;5071881;28;20629;-78
2021/09/09 00:29:01;;;;;;;11.17;9.67;;;14.50;99.90;;;;;;5071855;28;20417;-77
2021/09/09 00:32:24;;;;;;;10.20;9.17;;;14.80;99.90;;;;;;5072076;28;20428;-77
2021/09/09 00:34:53;;;;;;;10.13;9.13;;;14.50;99.90;;;;;;4989024;28;20451;-77
2021/09/09 00:37:23;;;;;;;11.37;10.00;;;14.50;99.90;;;;;;4991992;28;20428;-78
2021/09/09 00:40:28;;;;;;;10.70;9.60;;;14.60;99.90;;;;;;4990474;28;20464;-78
2021/09/09 00:43:25;;;;;;;11.37;10.17;;;14.40;99.90;;;;;;4989636;28;20427;-78
2021/09/09 00:46:03;;;;;;;12.03;9.77;;;14.40;99.90;;;;;;4990335;28;20705;-78
2021/09/09 00:48:29;;;;;;;10.60;9.60;;;14.50;99.90;;;;;;4988396;28;20471;-78
2021/09/09 00:50:54;;;;;;;10.23;8.57;;;14.50;99.90;;;;;;5035549;28;20482;-75
2021/09/09 00:53:20;;;;;;;10.73;9.63;;;14.50;99.90;;;;;;5067156;28;20225;-76
2021/09/09 00:55:48;;;;;;;10.40;9.40;;;14.80;99.90;;;;;;5065491;28;20228;-76
2021/09/09 00:58:14;;;;;;;10.70;9.67;;;14.30;99.90;;;;;;5065743;28;20561;-76
2021/09/09 01:00:39;;;;;;;10.23;9.37;;;14.50;99.90;;;;;;5065212;28;20907;-76
2021/09/09 01:03:06;;;;;;;10.47;9.47;;;14.50;99.90;;;;;;5065908;28;20205;-76
2021/09/09 01:05:33;;;;;;;10.10;9.20;;;14.60;99.90;;;;;;5067424;28;20511;-77
2021/09/09 01:07:59;;;;;;;11.40;10.30;;;14.30;99.90;;;;;;5068497;28;20432;-77
2021/09/09 01:10:25;;;;;;;10.47;8.90;;;14.40;99.90;;;;;;5066768;28;20528;-75
2021/09/09 01:12:50;;;;;;;10.70;9.70;;;14.50;99.90;;;;;;5063885;28;20214;-75
2021/09/09 01:15:16;;;;;;;11.00;10.00;;;14.50;99.90;;;;;;5063886;28;20181;-76
2021/09/09 01:17:42;;;;;;;13.13;10.30;;;14.40;99.90;;;;;;5066957;28;20178;-75
2021/09/09 01:20:08;;;;;;;11.73;10.53;;;14.50;99.90;;;;;;5068057;28;20197;-77
2021/09/09 01:22:34;;;;;;;11.20;10.20;;;14.80;99.90;;;;;;5067054;28;20181;-76
2021/09/09 01:25:00;;;;;;;11.33;10.17;;;14.40;99.90;;;;;;5064363;28;20785;-77
2021/09/09 01:27:25;;;;;;;10.90;9.90;;;14.50;99.90;;;;;;5065997;28;20467;-76
2021/09/09 01:29:51;;;;;;;9.63;8.70;;;14.50;99.90;;;;;;5064377;28;20452;-76
2021/09/09 01:32:17;;;;;;;11.10;10.10;;;14.80;99.90;;;;;;5068132;28;20209;-76
2021/09/09 01:34:42;;;;;;;11.80;10.67;;;14.70;99.90;;;;;;5066822;28;20675;-76
2021/09/09 01:37:10;;;;;;;13.43;9.50;;;14.80;99.90;;;;;;5065770;28;20957;-77
2021/09/09 01:39:36;;;;;;;10.50;9.53;;;14.60;99.90;;;;;;5065103;28;20496;-76
2021/09/09 01:42:02;;;;;;;10.33;9.33;;;14.50;99.90;;;;;;5065904;28;20565;-76
2021/09/09 01:44:29;;;;;;;10.57;9.50;;;14.50;99.90;;;;;;5065458;28;20472;-77
2021/09/09 01:46:55;;;;;;;10.87;9.77;;;14.40;99.90;;;;;;5068188;28;20427;-76
2021/09/09 01:49:21;;;;;;;10.13;9.20;;;14.50;99.90;;;;;;5066311;28;20420;-76
2021/09/09 01:51:46;;;;;;;11.80;10.70;;;14.80;99.90;;;;;;5064373;28;20428;-77
2021/09/09 01:54:12;;;;;;;10.90;9.60;;;14.40;99.90;;;;;;5069125;28;20269;-77
2021/09/09 01:56:38;;;;;;;11.53;10.33;;;14.70;99.90;;;;;;5071027;28;20181;-77
2021/09/09 01:59:04;;;;;;;10.50;9.50;;;14.60;99.90;;;;;;5071584;28;20649;-77
2021/09/09 02:01:29;;;;;;;10.20;9.27;;;14.50;99.90;;;;;;5069327;28;20547;-77
2021/09/09 02:03:55;;;;;;;12.73;10.57;;;14.50;99.90;;;;;;5071223;28;20436;-77
2021/09/09 02:06:21;;;;;;;11.40;10.00;;;14.60;99.90;;;;;;5071797;28;20930;-77
2021/09/09 02:08:47;;;;;;;11.23;9.30;;;14.70;99.90;;;;;;5071126;28;20181;-79
2021/09/09 02:11:13;;;;;;;11.77;10.30;;;14.40;99.90;;;;;;5069579;28;20428;-76
2021/09/09 02:13:39;;;;;;;12.60;9.93;;;14.50;99.90;;;;;;5068149;28;20225;-77
2021/09/09 02:16:05;;;;;;;10.90;9.80;;;14.40;99.90;;;;;;5071504;28;20257;-77
2021/09/09 02:18:31;;;;;;;10.60;9.60;;;14.40;99.90;;;;;;5070448;28;20531;-79
2021/09/09 02:20:57;;;;;;;11.03;9.93;;;14.50;99.90;;;;;;5070064;28;20436;-77
2021/09/09 02:23:23;;;;;;;11.30;9.53;;;14.40;99.90;;;;;;5069363;28;20185;-77
2021/09/09 02:25:49;;;;;;;11.50;10.33;;;14.40;99.90;;;;;;5070731;28;20483;-78
2021/09/09 02:28:14;;;;;;;11.27;9.70;;;14.50;99.90;;;;;;5071879;28;20432;-77
2021/09/09 02:30:41;;;;;;;11.03;9.90;;;14.50;99.90;;;;;;5069738;28;20182;-79
2021/09/09 02:33:06;;;;;;;12.73;11.43;;;14.30;99.90;;;;;;5069681;28;20696;-77
2021/09/09 02:35:32;;;;;;;12.00;10.90;;;14.20;99.90;;;;;;5070829;28;20600;-77
2021/09/09 02:37:58;;;;;;;11.10;10.00;;;14.30;99.90;;;;;;5072214;28;20181;-77
2021/09/09 02:40:23;;;;;;;10.03;9.13;;;14.40;99.90;;;;;;5069739;28;20239;-77
2021/09/09 02:42:49;;;;;;;11.60;10.50;;;14.40;99.90;;;;;;5068331;28;20718;-77
2021/09/09 02:45:14;;;;;;;10.40;9.30;;;14.50;99.90;;;;;;5068158;28;20248;-77
2021/09/09 02:47:40;;;;;;;11.50;9.90;;;14.40;99.90;;;;;;5072096;28;20657;-78
2021/09/09 02:50:06;;;;;;;10.57;9.57;;;14.70;99.90;;;;;;5071612;28;20633;-77
2021/09/09 02:52:32;;;;;;;12.03;10.10;;;14.60;99.90;;;;;;5067398;28;20251;-78
2021/09/09 02:54:58;;;;;;;12.03;10.83;;;14.40;99.90;;;;;;5070860;28;20420;-77
2021/09/09 02:57:24;;;;;;;11.57;10.07;;;14.30;99.90;;;;;;5071118;28;20488;-77
2021/09/09 02:59:49;;;;;;;10.83;9.50;;;14.50;99.90;;;;;;5070235;28;20216;-77
2021/09/09 03:02:16;;;;;;;10.80;9.77;;;14.20;99.90;;;;;;5067611;28;20586;-77
2021/09/09 03:04:41;;;;;;;10.33;9.40;;;14.30;99.90;;;;;;5067006;28;20515;-78
2021/09/09 03:07:07;;;;;;;12.20;11.00;;;14.20;99.90;;;;;;5070731;28;20190;-79
2021/09/09 03:09:32;;;;;;;13.50;10.37;;;14.30;99.90;;;;;;5069484;28;20181;-78
2021/09/09 03:11:58;;;;;;;10.67;9.57;;;14.30;99.90;;;;;;5069828;28;20777;-77
2021/09/09 03:14:23;;;;;;;9.93;9.03;;;14.10;99.90;;;;;;5067350;28;20691;-77
2021/09/09 03:16:49;;;;;;;11.10;10.10;;;14.30;99.90;;;;;;5071411;28;20180;-77
2021/09/09 03:19:15;;;;;;;11.40;9.87;;;14.40;99.90;;;;;;5070756;28;20258;-78
2021/09/09 03:21:40;;;;;;;12.80;11.53;;;14.20;99.90;;;;;;5067395;28;20181;-78
2021/09/09 03:24:06;;;;;;;11.70;10.70;;;14.30;99.90;;;;;;5068791;28;20216;-77
2021/09/09 03:26:32;;;;;;;11.40;10.30;;;14.40;99.90;;;;;;5068663;28;20181;-79
2021/09/09 03:28:57;;;;;;;11.03;9.97;;;14.30;99.90;;;;;;5071343;28;20177;-77
2021/09/09 03:31:23;;;;;;;11.53;10.43;;;14.20;99.90;;;;;;5069400;28;20181;-77
2021/09/09 03:33:48;;;;;;;11.03;10.03;;;14.60;99.90;;;;;;5067263;28;20228;-78
2021/09/09 03:36:14;;;;;;;11.40;10.30;;;14.30;99.90;;;;;;5070575;28;20205;-78
2021/09/09 03:38:40;;;;;;;10.03;9.03;;;14.40;99.90;;;;;;5069314;28;20668;-78
2021/09/09 03:41:08;;;;;;;10.97;9.87;;;14.40;99.90;;;;;;5069384;28;20174;-77
2021/09/09 03:43:33;;;;;;;11.57;10.00;;;14.30;99.90;;;;;;5066166;28;20482;-78
2021/09/09 03:45:59;;;;;;;11.33;10.23;;;14.30;99.90;;;;;;5070886;28;20467;-77
2021/09/09 03:48:24;;;;;;;10.40;9.40;;;14.10;99.90;;;;;;5070248;28;20235;-77
2021/09/09 03:50:50;;;;;;;11.20;10.20;;;14.30;99.90;;;;;;5068114;28;20613;-76
2021/09/09 03:53:15;;;;;;;11.87;10.67;;;14.20;99.90;;;;;;5066148;28;20231;-76
2021/09/09 03:55:41;;;;;;;10.87;9.80;;;14.10;99.90;;;;;;5066263;28;20240;-77
2021/09/09 03:58:07;;;;;;;10.40;9.50;;;14.20;99.90;;;;;;5068896;28;20178;-76
2021/09/09 04:00:32;;;;;;;10.67;9.60;;;14.10;99.90;;;;;;5068952;28;20194;-76
2021/09/09 04:02:59;;;;;;;11.43;10.37;;;14.00;99.90;;;;;;5068821;28;20269;-76
2021/09/09 04:05:25;;;;;;;11.63;10.43;;;13.90;99.90;;;;;;5067494;28;20567;-76
2021/09/09 04:07:50;;;;;;;12.10;9.60;;;14.00;99.90;;;;;;5067841;28;20432;-76
2021/09/09 04:10:16;;;;;;;10.87;9.87;;;13.70;99.90;;;;;;5070042;28;20739;-76
2021/09/09 04:12:41;;;;;;;11.60;10.53;;;13.80;99.90;;;;;;5068641;28;20226;-76
2021/09/09 04:15:08;;;;;;;12.07;10.87;;;14.00;99.90;;;;;;5067509;28;20182;-77
2021/09/09 04:17:34;;;;;;;10.67;9.67;;;14.10;99.90;;;;;;5067277;28;20185;-76
2021/09/09 04:20:00;;;;;;;11.57;10.37;;;14.10;99.90;;;;;;5070154;28;20791;-76
2021/09/09 04:22:26;;;;;;;11.67;10.47;;;13.80;99.90;;;;;;5069542;28;20424;-76
2021/09/09 04:24:51;;;;;;;11.67;10.57;;;14.30;99.90;;;;;;5067065;28;20255;-77
2021/09/09 04:27:21;;;;;;;11.80;10.70;;;14.40;99.90;;;;;;5065693;28;20166;-77
2021/09/09 04:29:47;;;;;;;11.60;10.60;;;14.10;99.90;;;;;;5067822;28;20790;-79
2021/09/09 04:32:13;;;;;;;11.17;10.07;;;13.90;99.90;;;;;;5070218;28;20472;-76
2021/09/09 04:34:38;;;;;;;11.00;10.00;;;14.10;99.90;;;;;;5068175;28;20198;-76
2021/09/09 04:37:04;;;;;;;11.37;10.10;;;14.20;99.90;;;;;;5068809;28;20182;-76
2021/09/09 04:39:29;;;;;;;12.00;10.80;;;14.30;99.90;;;;;;5069848;28;20216;-76
2021/09/09 04:41:55;;;;;;;11.10;10.00;;;14.00;99.90;;;;;;5070573;28;20185;-77
2021/09/09 04:44:20;;;;;;;13.40;11.10;;;14.10;99.90;;;;;;5069958;28;20233;-77
2021/09/09 04:46:48;;;;;;;11.10;10.00;;;14.20;99.90;;;;;;5066416;28;20541;-76
2021/09/09 04:49:13;;;;;;;11.00;10.07;;;14.00;99.90;;;;;;5065853;28;20189;-77
2021/09/09 04:51:39;;;;;;;11.37;10.30;;;14.00;99.90;;;;;;5067170;28;20429;-76
2021/09/09 04:54:04;;;;;;;11.90;10.80;;;14.10;99.90;;;;;;5069435;28;20461;-79
2021/09/09 04:56:30;;;;;;;11.93;10.77;;;14.00;99.90;;;;;;5069589;28;20178;-77
2021/09/09 04:58:57;;;;;;;12.87;11.47;;;14.10;99.90;;;;;;5065873;28;20211;-77
2021/09/09 05:01:23;;;;;;;16.03;11.70;;;14.20;99.90;;;;;;5067291;28;20209;-77
2021/09/09 05:03:48;;;;;;;12.50;11.30;;;14.10;99.90;;;;;;5065652;28;20423;-77
2021/09/09 05:06:14;;;;;;;10.83;9.83;;;14.30;99.90;;;;;;5069508;28;20186;-79
2021/09/09 05:08:39;;;;;;;12.63;11.33;;;14.30;99.90;;;;;;5068505;28;20205;-76
2021/09/09 05:11:09;;;;;;;12.37;11.07;;;14.00;99.90;;;;;;5070730;28;20182;-76
2021/09/09 05:13:34;;;;;;;11.87;10.60;;;14.20;99.90;;;;;;5067594;28;20243;-77
2021/09/09 05:16:00;;;;;;;10.70;9.70;;;14.30;99.90;;;;;;5067585;28;20420;-76
2021/09/09 05:18:25;;;;;;;11.40;10.20;;;14.40;99.90;;;;;;5066981;28;20211;-79
2021/09/09 05:20:51;;;;;;;12.27;10.97;;;14.20;99.90;;;;;;5069454;28;20178;-76
2021/09/09 05:23:16;;;;;;;12.13;10.27;;;14.40;99.90;;;;;;5069075;28;20889;-77
2021/09/09 05:25:42;;;;;;;10.67;9.57;;;14.20;99.90;;;;;;5064896;28;20196;-76
2021/09/09 05:28:07;;;;;;;11.40;10.23;;;14.30;99.90;;;;;;5067626;28;20232;-76
2021/09/09 05:30:33;;;;;;;10.57;9.57;;;14.10;99.90;;;;;;5075398;28;20178;-79
2021/09/09 05:32:58;;;;;;;11.87;9.80;;;14.20;99.90;;;;;;5075343;28;20217;-76
2021/09/09 05:35:24;;;;;;;11.23;10.13;;;14.70;99.90;;;;;;5073458;28;20542;-78
2021/09/09 05:37:49;;;;;;;11.30;10.30;;;14.30;99.90;;;;;;5073490;28;20181;-77
2021/09/09 05:40:16;;;;;;;11.70;10.60;;;14.70;99.90;;;;;;5076514;28;20194;-77
2021/09/09 05:42:42;;;;;;;11.70;10.50;;;14.80;99.90;;;;;;5073861;28;20822;-76
2021/09/09 05:45:08;;;;;;;11.20;10.10;;;14.80;99.90;;;;;;5072561;28;20483;-78
2021/09/09 05:47:34;;;;;;;11.70;10.50;;;15.00;99.90;;;;;;5072025;28;20185;-77
2021/09/09 05:49:59;;;;;;;12.03;10.97;;;15.00;99.90;;;;;;5075609;28;20933;-76
2021/09/09 05:52:25;;;;;;;11.07;9.97;;;15.10;99.90;;;;;;5075161;28;20457;-77
2021/09/09 05:54:50;;;;;;;11.80;10.60;;;15.50;99.90;;;;;;5072309;28;20564;-76
2021/09/09 05:57:16;;;;;;;11.80;10.70;;;15.40;99.90;;;;;;5070885;28;20540;-77
2021/09/09 05:59:41;;;;;;;11.90;10.70;;;15.50;99.90;;;;;;5074785;28;20197;-76
2021/09/09 06:02:14;;;;;;;11.67;10.67;;;15.60;99.90;;;;;;5075093;28;20202;-77
2021/09/09 06:04:40;;;;;;;14.73;12.50;;;15.80;99.90;;;;;;5073476;28;20419;-78
2021/09/09 06:07:06;;;;;;;12.17;11.03;;;15.80;99.90;;;;;;5072249;28;20432;-76
2021/09/09 06:09:32;;;;;;;17.03;11.37;;;15.90;99.90;;;;;;5071140;28;20482;-77
2021/09/09 06:11:57;;;;;;;12.63;11.43;;;16.20;99.90;;;;;;5072933;28;20208;-77
2021/09/09 06:14:23;;;;;;;12.87;11.67;;;16.20;99.90;;;;;;5073076;28;20278;-76
2021/09/09 06:16:48;;;;;;;12.87;11.67;;;16.70;99.90;;;;;;5076238;28;20860;-78
2021/09/09 06:19:14;;;;;;;11.30;10.30;;;17.00;99.90;;;;;;5074967;28;20179;-76
2021/09/09 06:21:40;;;;;;;13.03;11.83;;;17.00;99.90;;;;;;5071503;28;20585;-76
2021/09/09 06:24:07;;;;;;;11.93;10.87;;;17.60;99.90;;;;;;5073991;28;20179;-77
2021/09/09 06:26:33;;;;;;;11.60;10.57;;;17.70;99.90;;;;;;5073900;28;20921;-77
2021/09/09 06:28:59;;;;;;;12.63;11.53;;;18.10;99.90;;;;;;5075996;28;20762;-77
2021/09/09 06:31:24;;;;;;;11.80;10.70;;;17.90;99.90;;;;;;5073101;28;20509;-77
2021/09/09 06:33:50;;;;;;;11.60;10.47;;;18.60;99.90;;;;;;5072908;28;20271;-77
2021/09/09 06:36:16;;;;;;;11.93;10.80;;;18.60;99.90;;;;;;5075824;28;20183;-77
2021/09/09 06:38:42;;;;;;;11.13;10.10;;;18.60;99.90;;;;;;5074016;28;20204;-77
2021/09/09 06:41:07;;;;;;;11.40;10.20;;;18.70;99.90;;;;;;5069536;28;20419;-79
2021/09/09 06:43:33;;;;;;;10.80;9.90;;;19.00;99.90;;;;;;5069222;28;20270;-75
2021/09/09 06:45:58;;;;;;;12.17;10.97;;;19.00;99.90;;;;;;5072089;28;20204;-78
2021/09/09 06:48:24;;;;;;;11.17;10.07;;;19.10;99.90;;;;;;5071994;28;20200;-76
2021/09/09 06:50:50;;;;;;;10.53;9.63;;;19.10;99.90;;;;;;5069719;28;20566;-76
2021/09/09 06:53:15;;;;;;;10.87;9.97;;;19.40;99.90;;;;;;5069236;28;20585;-75
2021/09/09 06:55:41;;;;;;;10.67;9.67;;;19.50;99.90;;;;;;5068058;28;20192;-75
2021/09/09 06:58:06;;;;;;;10.50;9.60;;;19.90;99.90;;;;;;5070424;28;20579;-78
2021/09/09 07:00:32;;;;;;;10.10;9.20;;;19.90;99.90;;;;;;5069613;28;20185;-76
2021/09/09 07:02:57;;;;;;;11.27;10.23;;;19.80;99.90;;;;;;5071476;28;20193;-77
2021/09/09 07:05:23;;;;;;;10.20;9.40;;;19.90;99.90;;;;;;5069352;28;20169;-76
2021/09/09 07:07:48;;;;;;;10.83;9.73;;;20.50;99.90;;;;;;5069059;28;20178;-77
2021/09/09 07:10:14;;;;;;;10.77;9.87;;;20.40;99.90;;;;;;5071608;28;20235;-76
2021/09/09 07:12:39;;;;;;;10.63;9.57;;;20.60;99.90;;;;;;5069987;28;20215;-76
2021/09/09 07:15:05;;;;;;;10.33;9.53;;;20.60;99.90;;;;;;5068641;28;20213;-76
2021/09/09 07:17:31;;;;;;;11.27;10.27;;;21.00;99.90;;;;;;5066422;28;20177;-76
2021/09/09 07:19:57;;;;;;;9.90;9.10;;;20.80;98.70;;;;;;5071044;28;20433;-77
2021/09/09 07:22:22;;;;;;;10.37;9.47;;;21.00;97.70;;;;;;5070648;28;20185;-75
2021/09/09 07:24:48;;;;;;;10.07;9.17;;;21.00;97.10;;;;;;5068113;28;20189;-78
2021/09/09 07:27:14;;;;;;;10.97;9.97;;;21.30;97.20;;;;;;5067163;28;20690;-75
2021/09/09 07:29:39;;;;;;;10.37;9.27;;;21.00;96.70;;;;;;5067655;28;20181;-76
2021/09/09 07:32:06;;;;;;;10.17;9.33;;;21.50;96.20;;;;;;5072079;28;20182;-75
2021/09/09 07:34:32;;;;;;;9.90;9.10;;;21.30;95.30;;;;;;5071069;28;20303;-77
2021/09/09 07:36:57;;;;;;;9.57;8.80;;;21.40;94.90;;;;;;5068329;28;20523;-77
2021/09/09 07:39:23;;;;;;;9.93;9.07;;;21.80;93.40;;;;;;5066659;28;20184;-77
2021/09/09 07:41:49;;;;;;;9.97;9.17;;;21.90;92.70;;;;;;5070236;28;20477;-77
2021/09/09 07:44:14;;;;;;;11.10;10.10;;;21.80;91.50;;;;;;5070702;28;20990;-76
2021/09/09 07:46:40;;;;;;;9.50;8.60;;;22.20;91.60;;;;;;5067450;28;20394;-76
2021/09/09 07:49:08;;;;;;;10.00;9.10;;;22.30;91.90;;;;;;5067327;28;20268;-75
2021/09/09 07:51:34;;;;;;;9.83;9.03;;;22.70;85.20;;;;;;5065727;28;20188;-77
2021/09/09 07:54:00;;;;;;;9.17;8.37;;;23.10;84.40;;;;;;5065587;28;20570;-79
2021/09/09 07:56:25;;;;;;;9.73;8.73;;;23.60;78.90;;;;;;5067729;28;20521;-76
2021/09/09 07:58:51;;;;;;;10.17;9.17;;;23.70;78.50;;;;;;5066456;28;20286;-77
2021/09/09 08:01:18;;;;;;;8.83;8.13;;;23.70;76.80;;;;;;5066064;28;20550;-75
2021/09/09 08:03:44;;;;;;;8.87;8.17;;;24.00;76.40;;;;;;5066314;28;20516;-76
2021/09/09 08:06:10;;;;;;;8.80;8.10;;;23.90;73.40;;;;;;5067433;28;20516;-78
2021/09/09 08:08:35;;;;;;;9.23;8.43;;;24.20;72.00;;;;;;5068433;28;20195;-76
2021/09/09 08:11:01;;;;;;;9.30;8.40;;;23.90;71.20;;;;;;5069498;28;20702;-77
2021/09/09 08:13:26;;;;;;;9.47;8.67;;;24.10;71.80;;;;;;5068897;28;20783;-76
2021/09/09 08:15:52;;;;;;;8.87;8.07;;;24.10;72.00;;;;;;5065859;28;20184;-78
2021/09/09 08:18:17;;;;;;;8.80;8.07;;;24.30;69.80;;;;;;5065841;28;20203;-77
2021/09/09 08:20:43;;;;;;;9.47;8.70;;;24.40;70.60;;;;;;5068040;28;20657;-75
2021/09/09 08:23:08;;;;;;;10.03;9.27;;;24.60;68.80;;;;;;5069367;28;20189;-76
2021/09/09 08:25:34;;;;;;;9.60;8.70;;;24.70;66.80;;;;;;5067751;28;20189;-75
2021/09/09 08:27:59;;;;;;;9.20;8.30;;;24.80;67.30;;;;;;5065725;28;20565;-77
2021/09/09 08:30:25;;;;;;;9.00;8.30;;;24.80;65.30;;;;;;5066836;28;20254;-75
2021/09/09 08:32:50;;;;;;;9.33;8.50;;;24.80;64.80;;;;;;5065080;28;20740;-77
2021/09/09 08:35:16;;;;;;;10.20;9.30;;;25.20;65.50;;;;;;5065818;28;20186;-76
2021/09/09 08:37:41;;;;;;;9.20;8.50;;;25.60;63.80;;;;;;5065152;28;20211;-77
2021/09/09 08:40:09;;;;;;;8.73;8.00;;;25.40;62.10;;;;;;5065415;28;20195;-77
2021/09/09 08:42:38;;;;;;;9.63;8.83;;;25.30;61.50;;;;;;5065667;28;20196;-76
2021/09/09 08:45:05;;;;;;;8.73;8.13;;;25.80;59.60;;;;;;5065285;28;20891;-79
2021/09/09 08:47:31;;;;;;;8.40;7.80;;;26.20;59.60;;;;;;5066098;28;21005;-76
2021/09/09 08:49:57;;;;;;;9.47;8.57;;;27.30;58.30;;;;;;5068742;28;20516;-77
2021/09/09 08:52:22;;;;;;;8.70;7.90;;;28.80;56.10;;;;;;5068151;28;20469;-77
2021/09/09 08:54:48;;;;;;;9.80;9.10;;;30.30;50.90;;;;;;5064643;28;20224;-76
2021/09/09 08:57:19;;;;;;;7.90;7.30;;;31.60;47.30;;;;;;5065980;28;20708;-76
2021/09/09 08:59:44;;;;;;;8.87;8.17;;;32.70;44.50;;;;;;5068448;28;20264;-77
2021/09/09 09:02:10;;;;;;;9.03;8.27;;;33.60;40.10;;;;;;5068984;28;20814;-75
2021/09/09 09:04:37;;;;;;;8.80;8.00;;;34.20;38.60;;;;;;5064350;28;20207;-75
2021/09/09 09:07:06;;;;;;;8.87;8.17;;;34.80;37.60;;;;;;5064729;28;20430;-77
2021/09/09 09:09:34;;;;;;;9.07;8.37;;;35.60;36.60;;;;;;5063766;28;20479;-76
2021/09/09 09:12:02;;;;;;;9.30;8.50;;;36.10;35.20;;;;;;5067947;28;20420;-75
2021/09/09 09:14:28;;;;;;;8.77;8.17;;;36.70;34.90;;;;;;5068431;28;20439;-78
2021/09/09 09:16:57;;;;;;;7.63;7.13;;;37.40;33.60;;;;;;5066783;28;20428;-79
2021/09/09 09:19:31;;;;;;;9.47;8.67;;;38.10;33.10;;;;;;5066279;28;20186;-76
2021/09/09 09:22:00;;;;;;;9.40;8.70;;;38.70;30.80;;;;;;5068487;28;20432;-76
2021/09/09 09:24:32;;;;;;;8.57;7.87;;;39.20;29.70;;;;;;5068566;28;20432;-76
2021/09/09 09:27:08;;;;;;;8.00;7.40;;;39.90;29.90;;;;;;5067274;28;20451;-76
2021/09/09 09:29:34;;;;;;;8.77;8.10;;;40.70;28.40;;;;;;5064437;28;20948;-77
2021/09/09 09:32:12;;;;;;;8.90;8.20;;;41.00;27.40;;;;;;5065823;28;20432;-79
2021/09/09 09:34:38;;;;;;;8.77;8.17;;;41.20;26.80;;;;;;5068447;28;20190;-76
2021/09/09 09:37:04;;;;;;;8.00;7.40;;;41.00;26.20;;;;;;5068760;28;20447;-76
2021/09/09 09:39:30;;;;;;;8.37;7.77;;;40.80;26.90;;;;;;5068275;28;20429;-76
2021/09/09 09:42:03;;;;;;;9.10;8.37;;;40.90;26.80;;;;;;5065085;28;20174;-79
2021/09/09 09:44:34;;;;;;;8.90;8.20;;;40.80;26.30;;;;;;5070945;28;20487;-80
2021/09/09 09:47:10;;;;;;;7.97;7.37;;;40.90;27.10;;;;;;5075211;28;20823;-78
2021/09/09 09:49:39;;;;;;;7.90;7.30;;;41.30;27.20;;;;;;5065396;28;20554;-77
2021/09/09 09:52:07;;;;;;;8.53;7.73;;;41.80;27.00;;;;;;5075548;28;20443;-77
2021/09/09 09:54:34;;;;;;;8.20;7.60;;;42.40;25.90;;;;;;5074799;28;20432;-74
2021/09/09 09:57:00;;;;;;;7.90;7.30;;;42.50;25.10;;;;;;5080171;28;20431;-76
2021/09/09 09:59:27;;;;;;;7.73;7.10;;;42.60;24.40;;;;;;5080051;28;20428;-76
2021/09/09 10:01:52;;;;;;;7.43;6.93;;;42.40;24.70;;;;;;5067795;28;20820;-77
2021/09/09 10:04:21;;;;;;;8.30;7.60;;;42.00;25.40;;;;;;5066625;28;20428;-78
2021/09/09 10:06:51;;;;;;;7.93;7.43;;;42.50;25.30;;;;;;5064656;28;20193;-78
2021/09/09 10:09:18;;;;;;;7.37;6.87;;;43.10;24.80;;;;;;5065089;28;20428;-77
2021/09/09 10:11:45;;;;;;;7.43;6.93;;;43.00;24.90;;;;;;5064598;28;20518;-76
2021/09/09 10:14:20;;;;;;;8.20;7.40;;;43.30;23.90;;;;;;5065142;28;20972;-76
2021/09/09 10:16:47;;;;;;;6.60;6.20;;;43.10;24.00;;;;;;5068311;28;20795;-79
2021/09/09 10:19:21;;;;;;;6.73;6.23;;;42.60;24.00;;;;;;5068397;28;20443;-77
2021/09/09 10:21:48;;;;;;;6.73;6.23;;;41.40;24.50;;;;;;5068007;28;20447;-75
2021/09/09 10:24:19;;;;;;;7.50;7.00;;;39.90;25.20;;;;;;5071488;28;20432;-75
2021/09/09 10:26:46;;;;;;;7.00;6.40;;;38.70;26.50;;;;;;5069880;28;20426;-77
2021/09/09 10:29:50;;;;;;;7.27;6.67;;;37.60;28.10;;;;;;5070397;28;20487;-77
2021/09/09 10:32:46;;;;;;;6.57;6.07;;;36.70;29.80;;;;;;5068736;28;20610;-77
2021/09/09 10:35:18;;;;;;;7.07;6.53;;;36.20;30.20;;;;;;5068534;28;20431;-79
2021/09/09 10:37:51;;;;;;;6.93;6.33;;;36.60;31.00;;;;;;5070704;28;20420;-77
2021/09/09 10:40:38;;;;;;;7.17;6.67;;;37.00;30.90;;;;;;5071365;28;20420;-77
2021/09/09 10:43:05;;;;;;;6.90;6.30;;;37.40;30.00;;;;;;5070314;28;20861;-76
2021/09/09 10:45:34;;;;;;;6.10;5.70;;;37.30;29.50;;;;;;5067807;28;20467;-79
2021/09/09 10:48:01;;;;;;;6.27;5.77;;;37.60;30.20;;;;;;5067572;28;20416;-77
2021/09/09 10:50:27;;;;;;;6.97;6.47;;;38.60;29.60;;;;;;5069291;28;21269;-77
2021/09/09 10:53:08;;;;;;;6.67;6.10;;;39.20;29.00;;;;;;5068931;28;20529;-75
2021/09/09 10:55:43;;;;;;;6.30;5.87;;;38.90;28.10;;;;;;5069718;28;20258;-77
2021/09/09 10:58:20;;;;;;;6.67;6.17;;;38.80;27.80;;;;;;5070005;28;20891;-76
2021/09/09 11:00:52;;;;;;;6.20;5.40;;;38.60;28.50;;;;;;5067670;28;20436;-77
2021/09/09 11:03:43;;;;;;;5.97;5.47;;;38.30;28.60;;;;;;5067192;28;20444;-75
2021/09/09 11:06:14;;;;;;;6.47;5.97;;;38.50;29.00;;;;;;5069286;28;20451;-77
2021/09/09 11:08:41;;;;;;;5.67;5.27;;;39.60;28.70;;;;;;5069437;28;20670;-78
2021/09/09 11:11:15;;;;;;;6.43;5.40;;;40.80;26.60;;;;;;5071205;28;20514;-78
2021/09/09 11:13:41;;;;;;;7.60;6.37;;;41.40;25.30;;;;;;5067369;28;21019;-75
2021/09/09 11:16:25;;;;;;;5.70;5.20;;;42.00;24.70;;;;;;5068061;28;20420;-80
2021/09/09 11:18:51;;;;;;;5.37;4.87;;;42.70;24.60;;;;;;5070732;28;20459;-77
2021/09/09 11:21:19;;;;;;;5.77;5.37;;;43.40;23.30;;;;;;5071209;28;20424;-76
2021/09/09 11:23:46;;;;;;;5.50;5.10;;;43.80;22.80;;;;;;5067067;28;20485;-76
2021/09/09 11:26:20;;;;;;;5.13;4.83;;;44.10;22.20;;;;;;5065801;28;20521;-77
2021/09/09 11:28:48;;;;;;;5.90;5.40;;;43.90;21.80;;;;;;5069670;28;20481;-79
2021/09/09 11:31:17;;;;;;;5.17;4.87;;;44.00;21.70;;;;;;5071333;28;20923;-76
2021/09/09 11:33:53;;;;;;;5.47;5.07;;;43.70;22.00;;;;;;5069567;28;20609;-76
2021/09/09 11:36:20;;;;;;;5.87;5.37;;;44.00;23.20;;;;;;5067902;28;20519;-76
2021/09/09 11:38:46;;;;;;;6.93;6.03;;;44.50;22.30;;;;;;5066569;28;20431;-76
2021/09/09 11:41:17;;;;;;;6.63;6.20;;;44.80;22.30;;;;;;5066985;28;20455;-77
2021/09/09 11:43:57;;;;;;;6.97;6.47;;;45.30;22.00;;;;;;5067175;28;20459;-75
2021/09/09 11:46:30;;;;;;;6.13;5.83;;;45.80;20.80;;;;;;5068284;28;20472;-77
2021/09/09 11:49:04;;;;;;;6.57;6.07;;;45.80;21.00;;;;;;5070687;28;20424;-75
2021/09/09 11:51:46;;;;;;;6.30;5.90;;;44.60;21.20;;;;;;5070203;28;20794;-78
2021/09/09 11:54:18;;;;;;;6.87;6.47;;;43.30;22.50;;;;;;5066777;28;20787;-76
2021/09/09 11:56:45;;;;;;;6.77;6.27;;;42.60;23.30;;;;;;5066973;28;20436;-76
2021/09/09 11:59:17;;;;;;;7.37;6.87;;;41.90;23.40;;;;;;5068904;28;20422;-77
2021/09/09 12:01:48;;;;;;;6.10;5.70;;;40.80;23.50;;;;;;5070397;28;20793;-77
2021/09/09 12:04:16;;;;;;;6.63;6.17;;;40.00;25.40;;;;;;5070035;28;20471;-77
2021/09/09 12:06:42;;;;;;;6.80;6.40;;;41.10;24.80;;;;;;5066991;28;20429;-76
2021/09/09 12:09:08;;;;;;;6.73;6.23;;;41.40;24.20;;;;;;5067139;28;20435;-78
2021/09/09 12:11:34;;;;;;;7.00;6.30;;;41.70;23.50;;;;;;5066115;28;20431;-78
2021/09/09 12:14:18;;;;;;;6.77;6.23;;;42.60;23.40;;;;;;5067710;28;20935;-77
2021/09/09 12:16:44;;;;;;;6.47;5.93;;;43.80;22.30;;;;;;5068403;28;20189;-77
2021/09/09 12:19:10;;;;;;;6.77;6.27;;;44.80;22.20;;;;;;5069840;28;20420;-79
2021/09/09 12:21:50;;;;;;;6.77;6.17;;;45.90;21.20;;;;;;5067388;28;20181;-76
2021/09/09 12:24:20;;;;;;;6.20;5.77;;;46.60;20.60;;;;;;5066043;28;20483;-76
2021/09/09 12:26:59;;;;;;;6.00;5.57;;;47.60;19.20;;;;;;5066475;28;20427;-76
2021/09/09 12:29:24;;;;;;;5.50;5.13;;;48.60;19.00;;;;;;5067096;28;20801;-79
2021/09/09 12:31:50;;;;;;;6.10;5.70;;;48.90;18.10;;;;;;5069760;28;21126;-77
2021/09/09 12:34:17;;;;;;;6.73;6.33;;;48.30;18.30;;;;;;5068127;28;20664;-77
2021/09/09 12:36:49;;;;;;;6.47;5.97;;;47.70;17.50;;;;;;5066536;28;20260;-77
2021/09/09 12:39:18;;;;;;;6.67;6.20;;;46.50;18.40;;;;;;5069282;28;20504;-76
2021/09/09 12:41:44;;;;;;;6.33;5.93;;;45.00;19.40;;;;;;5068582;28;20437;-77